sensor_id;sensor_type;location;lat;lon;timestamp;P1;durP1;ratioP1;P2;durP2;ratioP2
58874;SDS011;44652;49.040;12.126;2023-05-09T05:24:31;16.25;;;12.90;;
58874;SDS011;44652;49.040;12.126;2023-05-09T05:26:58;14.70;;;12.63;;
58874;SDS011;44652;49.040;12.126;2023-05-09T05:29:25;13.68;;;11.95;;
58874;SDS011;44652;49.040;12.126;2023-05-09T14:41:53;6.03;;;3.72;;
58874;SDS011;44652;49.040;12.126;2023-05-09T14:44:20;7.10;;;3.47;;
58874;SDS011;44652;49.040;12.126;2023-05-09T14:46:50;6.35;;;3.38;;
58874;SDS011;44652;49.040;12.126;2023-05-09T14:49:18;6.13;;;3.28;;
58874;SDS011;44652;49.040;12.126;2023-05-09T14:51:48;5.38;;;3.70;;
58874;SDS011;44652;49.040;12.126;2023-05-09T14:54:17;6.35;;;3.45;;
58874;SDS011;44652;49.040;12.126;2023-05-09T14:56:43;7.65;;;3.40;;
58874;SDS011;44652;49.040;12.126;2023-05-09T14:59:10;6.65;;;3.03;;
58874;SDS011;44652;49.040;12.126;2023-05-09T15:01:36;5.85;;;3.33;;
58874;SDS011;44652;49.040;12.126;2023-05-09T15:04:03;4.45;;;3.03;;
58874;SDS011;44652;49.040;12.126;2023-05-09T15:06:30;5.38;;;3.40;;
58874;SDS011;44652;49.040;12.126;2023-05-09T15:08:57;5.38;;;2.83;;
58874;SDS011;44652;49.040;12.126;2023-05-09T15:11:23;8.45;;;3.00;;
58874;SDS011;44652;49.040;12.126;2023-05-09T15:13:53;5.78;;;2.72;;
58874;SDS011;44652;49.040;12.126;2023-05-09T15:16:20;5.82;;;3.00;;
58874;SDS011;44652;49.040;12.126;2023-05-09T15:18:47;4.90;;;2.40;;
58874;SDS011;44652;49.040;12.126;2023-05-09T15:21:13;6.38;;;2.75;;
58874;SDS011;44652;49.040;12.126;2023-05-09T15:23:40;5.90;;;2.60;;
58874;SDS011;44652;49.040;12.126;2023-05-09T15:26:06;6.78;;;2.58;;
58874;SDS011;44652;49.040;12.126;2023-05-09T15:28:39;4.82;;;3.03;;
58874;SDS011;44652;49.040;12.126;2023-05-09T15:31:06;5.40;;;3.27;;
58874;SDS011;44652;49.040;12.126;2023-05-09T15:33:33;6.85;;;2.90;;
58874;SDS011;44652;49.040;12.126;2023-05-09T15:36:02;5.15;;;2.60;;
58874;SDS011;44652;49.040;12.126;2023-05-09T15:38:29;5.50;;;3.40;;
58874;SDS011;44652;49.040;12.126;2023-05-09T15:40:55;5.80;;;3.22;;
58874;SDS011;44652;49.040;12.126;2023-05-09T15:43:22;6.25;;;3.22;;
58874;SDS011;44652;49.040;12.126;2023-05-09T15:45:48;5.72;;;3.33;;
58874;SDS011;44652;49.040;12.126;2023-05-09T15:48:15;4.80;;;3.28;;
58874;SDS011;44652;49.040;12.126;2023-05-09T15:50:42;4.50;;;2.67;;
58874;SDS011;44652;49.040;12.126;2023-05-09T15:55:36;6.22;;;3.30;;
58874;SDS011;44652;49.040;12.126;2023-05-09T15:58:03;4.80;;;3.17;;
58874;SDS011;44652;49.040;12.126;2023-05-09T16:00:30;7.50;;;3.30;;
58874;SDS011;44652;49.040;12.126;2023-05-09T16:02:56;5.90;;;3.45;;
58874;SDS011;44652;49.040;12.126;2023-05-09T16:05:23;6.97;;;3.63;;
58874;SDS011;44652;49.040;12.126;2023-05-09T16:07:50;5.47;;;2.95;;
58874;SDS011;44652;49.040;12.126;2023-05-09T16:10:18;6.35;;;3.40;;
58874;SDS011;44652;49.040;12.126;2023-05-09T16:12:44;6.43;;;2.83;;
58874;SDS011;44652;49.040;12.126;2023-05-09T16:15:11;5.93;;;3.30;;
58874;SDS011;44652;49.040;12.126;2023-05-09T16:17:38;7.50;;;3.40;;
58874;SDS011;44652;49.040;12.126;2023-05-09T16:20:04;9.05;;;3.70;;
58874;SDS011;44652;49.040;12.126;2023-05-09T16:22:31;5.35;;;3.47;;
58874;SDS011;44652;49.040;12.126;2023-05-09T16:24:58;7.72;;;3.45;;
58874;SDS011;44652;49.040;12.126;2023-05-09T16:27:24;6.10;;;3.50;;
58874;SDS011;44652;49.040;12.126;2023-05-09T16:29:51;8.63;;;4.07;;
58874;SDS011;44652;49.040;12.126;2023-05-09T16:32:17;5.53;;;3.40;;
58874;SDS011;44652;49.040;12.126;2023-05-09T16:34:44;7.05;;;3.50;;
58874;SDS011;44652;49.040;12.126;2023-05-09T16:37:10;6.38;;;3.20;;
58874;SDS011;44652;49.040;12.126;2023-05-09T16:39:37;13.45;;;3.47;;
58874;SDS011;44652;49.040;12.126;2023-05-09T16:42:03;8.18;;;3.22;;
58874;SDS011;44652;49.040;12.126;2023-05-09T16:44:30;6.57;;;3.47;;
58874;SDS011;44652;49.040;12.126;2023-05-09T16:46:57;4.80;;;3.03;;
58874;SDS011;44652;49.040;12.126;2023-05-09T16:49:23;10.85;;;3.65;;
58874;SDS011;44652;49.040;12.126;2023-05-09T16:51:50;6.35;;;3.38;;
58874;SDS011;44652;49.040;12.126;2023-05-09T16:54:16;7.30;;;3.53;;
58874;SDS011;44652;49.040;12.126;2023-05-09T16:56:43;8.18;;;3.55;;
58874;SDS011;44652;49.040;12.126;2023-05-09T16:59:09;8.60;;;3.70;;
58874;SDS011;44652;49.040;12.126;2023-05-09T17:01:36;5.68;;;3.55;;
58874;SDS011;44652;49.040;12.126;2023-05-09T17:04:03;6.50;;;3.63;;
58874;SDS011;44652;49.040;12.126;2023-05-09T17:06:32;5.53;;;3.42;;
58874;SDS011;44652;49.040;12.126;2023-05-09T17:08:59;7.32;;;3.35;;
58874;SDS011;44652;49.040;12.126;2023-05-09T17:11:26;6.68;;;3.28;;
58874;SDS011;44652;49.040;12.126;2023-05-09T17:13:52;9.80;;;3.50;;
58874;SDS011;44652;49.040;12.126;2023-05-09T17:16:19;6.97;;;3.00;;
58874;SDS011;44652;49.040;12.126;2023-05-09T17:18:45;7.15;;;3.38;;
58874;SDS011;44652;49.040;12.126;2023-05-09T17:21:13;7.85;;;3.47;;
58874;SDS011;44652;49.040;12.126;2023-05-09T17:23:40;4.77;;;3.03;;
58874;SDS011;44652;49.040;12.126;2023-05-09T17:26:06;5.03;;;2.88;;
58874;SDS011;44652;49.040;12.126;2023-05-09T17:28:33;6.15;;;2.90;;
58874;SDS011;44652;49.040;12.126;2023-05-09T17:31:00;6.10;;;3.30;;
58874;SDS011;44652;49.040;12.126;2023-05-09T17:33:27;7.40;;;3.03;;
58874;SDS011;44652;49.040;12.126;2023-05-09T17:35:53;6.22;;;3.22;;
58874;SDS011;44652;49.040;12.126;2023-05-09T17:38:20;5.93;;;2.90;;
58874;SDS011;44652;49.040;12.126;2023-05-09T17:40:46;9.10;;;3.20;;
58874;SDS011;44652;49.040;12.126;2023-05-09T17:43:13;5.00;;;2.95;;
58874;SDS011;44652;49.040;12.126;2023-05-09T17:45:39;5.78;;;2.88;;
58874;SDS011;44652;49.040;12.126;2023-05-09T17:48:06;5.93;;;3.08;;
58874;SDS011;44652;49.040;12.126;2023-05-09T17:50:33;8.70;;;3.45;;
58874;SDS011;44652;49.040;12.126;2023-05-09T17:52:59;5.70;;;3.00;;
58874;SDS011;44652;49.040;12.126;2023-05-09T17:55:27;5.53;;;2.95;;
58874;SDS011;44652;49.040;12.126;2023-05-09T17:57:54;8.60;;;3.10;;
58874;SDS011;44652;49.040;12.126;2023-05-09T18:00:20;7.97;;;3.30;;
58874;SDS011;44652;49.040;12.126;2023-05-09T18:02:47;7.95;;;3.42;;
58874;SDS011;44652;49.040;12.126;2023-05-09T18:05:16;8.77;;;3.65;;
58874;SDS011;44652;49.040;12.126;2023-05-09T18:07:43;6.10;;;3.28;;
58874;SDS011;44652;49.040;12.126;2023-05-09T18:10:10;5.55;;;3.17;;
58874;SDS011;44652;49.040;12.126;2023-05-09T18:12:36;5.88;;;3.10;;
58874;SDS011;44652;49.040;12.126;2023-05-09T18:15:03;8.00;;;3.30;;
58874;SDS011;44652;49.040;12.126;2023-05-09T18:17:31;8.30;;;3.38;;
58874;SDS011;44652;49.040;12.126;2023-05-09T18:19:57;4.57;;;2.60;;
58874;SDS011;44652;49.040;12.126;2023-05-09T18:22:24;5.15;;;3.03;;
58874;SDS011;44652;49.040;12.126;2023-05-09T18:24:51;4.88;;;3.03;;
58874;SDS011;44652;49.040;12.126;2023-05-09T18:27:17;4.75;;;2.88;;
58874;SDS011;44652;49.040;12.126;2023-05-09T18:29:45;6.82;;;3.08;;
58874;SDS011;44652;49.040;12.126;2023-05-09T18:32:12;6.13;;;3.67;;
58874;SDS011;44652;49.040;12.126;2023-05-09T18:34:39;5.90;;;3.40;;
58874;SDS011;44652;49.040;12.126;2023-05-09T18:37:06;5.00;;;3.22;;
58874;SDS011;44652;49.040;12.126;2023-05-09T18:39:32;7.18;;;3.90;;
58874;SDS011;44652;49.040;12.126;2023-05-09T18:41:59;6.55;;;3.97;;
58874;SDS011;44652;49.040;12.126;2023-05-09T18:44:25;6.10;;;3.05;;
58874;SDS011;44652;49.040;12.126;2023-05-09T18:46:52;6.78;;;4.03;;
58874;SDS011;44652;49.040;12.126;2023-05-09T18:49:19;6.82;;;3.33;;
58874;SDS011;44652;49.040;12.126;2023-05-09T18:51:45;6.80;;;3.50;;
58874;SDS011;44652;49.040;12.126;2023-05-09T18:55:13;7.22;;;3.65;;
58874;SDS011;44652;49.040;12.126;2023-05-09T18:57:59;5.45;;;3.08;;
58874;SDS011;44652;49.040;12.126;2023-05-09T19:00:25;7.43;;;4.03;;
58874;SDS011;44652;49.040;12.126;2023-05-09T19:06:04;5.80;;;4.00;;
58874;SDS011;44652;49.040;12.126;2023-05-09T19:08:30;8.27;;;4.20;;
58874;SDS011;44652;49.040;12.126;2023-05-09T19:11:00;9.05;;;3.95;;
58874;SDS011;44652;49.040;12.126;2023-05-09T19:13:37;6.05;;;3.72;;
58874;SDS011;44652;49.040;12.126;2023-05-09T19:20:23;6.45;;;3.40;;
58874;SDS011;44652;49.040;12.126;2023-05-09T19:22:50;8.05;;;4.50;;
58874;SDS011;44652;49.040;12.126;2023-05-09T19:25:20;6.47;;;3.40;;
58874;SDS011;44652;49.040;12.126;2023-05-09T19:28:08;8.68;;;3.60;;
58874;SDS011;44652;49.040;12.126;2023-05-09T19:33:49;6.43;;;3.05;;
58874;SDS011;44652;49.040;12.126;2023-05-09T19:36:16;6.47;;;3.70;;
58874;SDS011;44652;49.040;12.126;2023-05-09T19:38:57;7.78;;;3.67;;
58874;SDS011;44652;49.040;12.126;2023-05-09T19:45:24;5.47;;;3.65;;
58874;SDS011;44652;49.040;12.126;2023-05-09T19:59:46;5.28;;;3.33;;
58874;SDS011;44652;49.040;12.126;2023-05-09T20:02:13;5.50;;;3.33;;
58874;SDS011;44652;49.040;12.126;2023-05-09T20:04:42;10.38;;;3.70;;
58874;SDS011;44652;49.040;12.126;2023-05-09T20:07:15;6.20;;;3.80;;
58874;SDS011;44652;49.040;12.126;2023-05-09T20:09:51;6.97;;;3.33;;
58874;SDS011;44652;49.040;12.126;2023-05-09T20:12:17;7.07;;;3.80;;
58874;SDS011;44652;49.040;12.126;2023-05-09T20:21:06;9.80;;;4.38;;
58874;SDS011;44652;49.040;12.126;2023-05-09T20:23:42;7.10;;;3.75;;
58874;SDS011;44652;49.040;12.126;2023-05-09T20:26:21;6.03;;;3.65;;
58874;SDS011;44652;49.040;12.126;2023-05-09T20:28:50;6.13;;;3.75;;
58874;SDS011;44652;49.040;12.126;2023-05-09T20:31:19;7.35;;;3.70;;
58874;SDS011;44652;49.040;12.126;2023-05-09T20:33:49;8.70;;;3.85;;
58874;SDS011;44652;49.040;12.126;2023-05-09T20:36:16;4.97;;;3.30;;
58874;SDS011;44652;49.040;12.126;2023-05-09T20:38:44;6.78;;;3.50;;
58874;SDS011;44652;49.040;12.126;2023-05-09T20:41:11;5.70;;;3.50;;
58874;SDS011;44652;49.040;12.126;2023-05-09T20:43:38;8.60;;;3.60;;
58874;SDS011;44652;49.040;12.126;2023-05-09T20:46:04;6.68;;;3.72;;
58874;SDS011;44652;49.040;12.126;2023-05-09T20:48:38;7.60;;;3.80;;
58874;SDS011;44652;49.040;12.126;2023-05-09T20:51:06;6.68;;;3.55;;
58874;SDS011;44652;49.040;12.126;2023-05-09T20:56:25;7.40;;;3.25;;
58874;SDS011;44652;49.040;12.126;2023-05-09T21:01:20;8.13;;;3.47;;
58874;SDS011;44652;49.040;12.126;2023-05-09T21:03:46;12.35;;;4.00;;
58874;SDS011;44652;49.040;12.126;2023-05-09T21:06:13;6.50;;;3.78;;
58874;SDS011;44652;49.040;12.126;2023-05-09T21:11:22;5.28;;;3.40;;
58874;SDS011;44652;49.040;12.126;2023-05-09T21:13:53;5.72;;;3.80;;
58874;SDS011;44652;49.040;12.126;2023-05-09T21:16:20;5.88;;;3.90;;
58874;SDS011;44652;49.040;12.126;2023-05-09T21:18:48;5.88;;;3.83;;
58874;SDS011;44652;49.040;12.126;2023-05-09T21:21:23;10.27;;;4.15;;
58874;SDS011;44652;49.040;12.126;2023-05-09T21:26:43;11.68;;;4.63;;
58874;SDS011;44652;49.040;12.126;2023-05-09T21:30:14;6.07;;;4.20;;
58874;SDS011;44652;49.040;12.126;2023-05-09T21:33:54;12.00;;;4.53;;
58874;SDS011;44652;49.040;12.126;2023-05-09T21:37:43;7.85;;;4.22;;
58874;SDS011;44652;49.040;12.126;2023-05-09T21:50:10;5.45;;;4.00;;
58874;SDS011;44652;49.040;12.126;2023-05-09T21:52:36;7.90;;;3.83;;
58874;SDS011;44652;49.040;12.126;2023-05-09T21:55:03;19.55;;;4.55;;
58874;SDS011;44652;49.040;12.126;2023-05-09T21:57:34;4.45;;;3.30;;
58874;SDS011;44652;49.040;12.126;2023-05-09T22:00:03;6.93;;;3.53;;
58874;SDS011;44652;49.040;12.126;2023-05-09T22:02:38;4.82;;;2.97;;
58874;SDS011;44652;49.040;12.126;2023-05-09T22:05:09;6.43;;;3.22;;
58874;SDS011;44652;49.040;12.126;2023-05-09T22:07:35;6.13;;;3.60;;
58874;SDS011;44652;49.040;12.126;2023-05-09T22:10:07;5.30;;;3.58;;
58874;SDS011;44652;49.040;12.126;2023-05-09T22:12:34;6.47;;;3.20;;
58874;SDS011;44652;49.040;12.126;2023-05-09T22:15:10;6.95;;;3.75;;
58874;SDS011;44652;49.040;12.126;2023-05-09T22:17:40;4.28;;;3.00;;
58874;SDS011;44652;49.040;12.126;2023-05-09T22:20:07;5.05;;;3.42;;
58874;SDS011;44652;49.040;12.126;2023-05-09T22:22:37;6.70;;;3.65;;
58874;SDS011;44652;49.040;12.126;2023-05-09T22:25:07;7.03;;;3.03;;
58874;SDS011;44652;49.040;12.126;2023-05-09T22:27:34;5.90;;;2.90;;
58874;SDS011;44652;49.040;12.126;2023-05-09T22:30:02;5.32;;;2.53;;
58874;SDS011;44652;49.040;12.126;2023-05-09T22:32:31;6.82;;;3.15;;
58874;SDS011;44652;49.040;12.126;2023-05-09T22:35:03;5.53;;;3.00;;
58874;SDS011;44652;49.040;12.126;2023-05-09T22:37:30;13.90;;;2.80;;
58874;SDS011;44652;49.040;12.126;2023-05-09T22:39:56;6.50;;;3.28;;
58874;SDS011;44652;49.040;12.126;2023-05-09T22:42:34;4.97;;;3.10;;
58874;SDS011;44652;49.040;12.126;2023-05-09T22:45:23;8.27;;;4.05;;
58874;SDS011;44652;49.040;12.126;2023-05-09T22:47:50;6.22;;;2.97;;
58874;SDS011;44652;49.040;12.126;2023-05-09T22:50:16;5.25;;;3.10;;
58874;SDS011;44652;49.040;12.126;2023-05-09T22:52:43;5.50;;;3.20;;
58874;SDS011;44652;49.040;12.126;2023-05-09T22:55:10;4.65;;;3.03;;
58874;SDS011;44652;49.040;12.126;2023-05-09T22:57:36;8.98;;;3.17;;
